createdAt,value
2023-02-24T00:00:34.704Z,35.10
2023-02-24T00:03:06.495Z,41.88
2023-02-24T00:05:36.351Z,41.20
2023-02-24T00:08:03.681Z,38.90
2023-02-24T00:10:30.981Z,35.85
2023-02-24T00:12:58.155Z,35.80
2023-02-24T00:15:25.785Z,40.63
2023-02-24T00:17:52.846Z,43.05
2023-02-24T00:20:20.412Z,38.08
2023-02-24T00:22:47.494Z,39.90
2023-02-24T00:25:14.709Z,38.70
2023-02-24T00:27:42.651Z,38.47
2023-02-24T00:30:12.016Z,41.42
2023-02-24T00:32:40.066Z,36.45
2023-02-24T00:35:09.092Z,44.38
2023-02-24T00:37:36.379Z,40.55
2023-02-24T00:40:11.073Z,40.63
2023-02-24T00:42:39.951Z,38.83
2023-02-24T00:45:10.339Z,45.15
2023-02-24T00:47:40.096Z,40.17
2023-02-24T00:50:09.105Z,46.40
2023-02-24T00:52:39.498Z,44.35
2023-02-24T00:55:14.056Z,40.45
2023-02-24T00:57:41.953Z,46.33
2023-02-24T01:00:13.255Z,42.80
2023-02-24T01:02:40.698Z,47.28
2023-02-24T01:05:09.545Z,44.28
2023-02-24T01:07:36.755Z,42.90
2023-02-24T01:10:08.609Z,44.42
2023-02-24T01:12:38.831Z,45.78
2023-02-24T01:15:09.274Z,45.33
2023-02-24T01:17:37.869Z,44.05
2023-02-24T01:20:18.008Z,41.25
2023-02-24T01:22:53.623Z,43.08
2023-02-24T01:25:21.301Z,43.53
2023-02-24T01:27:48.862Z,41.38
2023-02-24T01:30:20.646Z,44.83
2023-02-24T01:32:48.438Z,48.05
2023-02-24T01:35:16.196Z,43.63
2023-02-24T01:37:43.377Z,44.45
2023-02-24T01:40:18.791Z,42.30
2023-02-24T01:42:47.714Z,42.75
2023-02-24T01:45:29.251Z,39.72
2023-02-24T01:48:06.767Z,45.30
2023-02-24T01:50:36.941Z,41.13
2023-02-24T01:53:08.426Z,46.25
2023-02-24T01:55:50.735Z,45.50
2023-02-24T01:58:28.771Z,42.85
2023-02-24T02:00:57.867Z,44.92
2023-02-24T02:06:13.594Z,43.85
2023-02-24T02:08:42.518Z,44.17
2023-02-24T02:11:20.501Z,44.50
2023-02-24T02:13:50.544Z,42.13
2023-02-24T02:16:27.864Z,44.83
2023-02-24T02:19:40.869Z,47.97
2023-02-24T02:22:14.263Z,42.58
2023-02-24T02:25:09.564Z,51.28
2023-02-24T02:28:12.895Z,47.03
2023-02-24T02:31:12.869Z,51.45
2023-02-24T02:34:08.416Z,48.00
2023-02-24T02:36:56.888Z,46.80
2023-02-24T02:39:33.649Z,46.20
2023-02-24T02:42:24.362Z,45.58
2023-02-24T02:45:09.899Z,45.20
2023-02-24T02:48:06.424Z,43.35
2023-02-24T02:51:04.331Z,46.47
2023-02-24T02:54:11.793Z,48.30
2023-02-24T02:56:53.966Z,42.63
2023-02-24T02:59:25.990Z,43.55
2023-02-24T03:02:01.201Z,44.05
2023-02-24T03:04:30.218Z,44.67
2023-02-24T03:07:02.346Z,45.03
2023-02-24T03:09:35.917Z,45.47
2023-02-24T03:12:12.490Z,45.00
2023-02-24T03:14:52.526Z,40.67
2023-02-24T03:17:27.240Z,38.63
2023-02-24T03:20:17.585Z,46.08
2023-02-24T03:22:55.992Z,44.10
2023-02-24T03:25:33.902Z,44.83
2023-02-24T03:28:12.204Z,49.67
2023-02-24T03:30:49.069Z,41.97
2023-02-24T03:33:20.018Z,44.10
2023-02-24T03:35:53.831Z,51.88
2023-02-24T03:38:24.522Z,48.55
2023-02-24T03:40:55.031Z,45.03
2023-02-24T03:43:32.623Z,48.88
2023-02-24T03:46:01.430Z,37.95
2023-02-24T03:48:29.473Z,47.17
2023-02-24T03:50:59.388Z,39.55
2023-02-24T03:53:30.846Z,48.13
2023-02-24T03:56:43.332Z,40.88
2023-02-24T03:59:42.275Z,43.78
2023-02-24T04:02:23.998Z,43.65
2023-02-24T04:05:09.681Z,44.38
2023-02-24T04:10:22.629Z,49.13
2023-02-24T04:13:10.346Z,52.28
2023-02-24T04:16:05.930Z,47.70
2023-02-24T04:18:34.005Z,41.63
2023-02-24T04:21:05.468Z,49.63
2023-02-24T04:23:40.029Z,51.45
2023-02-24T04:26:09.614Z,51.63
2023-02-24T04:28:36.838Z,50.80
2023-02-24T04:31:11.371Z,53.67
2023-02-24T04:33:38.859Z,54.88
2023-02-24T04:36:09.002Z,48.13
2023-02-24T04:38:36.846Z,49.30
2023-02-24T04:41:04.365Z,52.42
2023-02-24T04:43:31.702Z,46.35
2023-02-24T04:46:07.673Z,49.35
2023-02-24T04:48:35.722Z,52.50
2023-02-24T04:51:03.868Z,50.55
2023-02-24T04:53:31.452Z,51.10
2023-02-24T04:56:08.888Z,51.65
2023-02-24T04:58:39.809Z,45.65
2023-02-24T05:01:10.763Z,51.22
2023-02-24T05:03:42.310Z,50.15
2023-02-24T05:06:16.730Z,47.63
2023-02-24T05:08:44.697Z,51.50
2023-02-24T05:11:16.828Z,50.90
2023-02-24T05:13:48.197Z,57.85
2023-02-24T05:16:20.573Z,59.78
2023-02-24T05:18:48.276Z,57.13
2023-02-24T05:21:36.655Z,55.50
2023-02-24T05:24:08.348Z,54.15
2023-02-24T05:26:38.586Z,59.17
2023-02-24T05:29:07.559Z,56.35
2023-02-24T05:31:35.187Z,58.08
2023-02-24T05:34:08.223Z,60.83
2023-02-24T05:36:45.867Z,59.17
2023-02-24T05:39:19.207Z,57.30
2023-02-24T05:41:48.995Z,67.72
2023-02-24T05:44:23.534Z,65.13
2023-02-24T05:46:58.917Z,60.08
2023-02-24T05:49:33.038Z,60.38
2023-02-24T05:52:07.763Z,71.28
2023-02-24T05:54:40.025Z,64.00
2023-02-24T05:57:13.998Z,60.58
2023-02-24T05:59:42.919Z,54.95
2023-02-24T06:02:13.808Z,59.97
2023-02-24T06:04:51.216Z,51.45
2023-02-24T06:07:27.102Z,60.45
2023-02-24T06:09:57.866Z,50.55
2023-02-24T06:12:31.854Z,49.65
2023-02-24T06:14:59.572Z,49.60
2023-02-24T06:17:28.320Z,50.90
2023-02-24T06:19:56.051Z,55.58
2023-02-24T06:22:26.228Z,55.42
2023-02-24T06:24:55.199Z,50.53
2023-02-24T06:27:24.890Z,57.08
2023-02-24T06:29:54.746Z,52.72
2023-02-24T06:32:26.545Z,52.40
2023-02-24T06:34:54.946Z,59.30
2023-02-24T06:37:25.006Z,49.95
2023-02-24T06:39:56.029Z,53.10
2023-02-24T06:42:23.280Z,53.47
2023-02-24T06:44:50.437Z,45.65
2023-02-24T06:47:18.096Z,54.88
2023-02-24T06:49:45.431Z,52.10
2023-02-24T06:52:18.590Z,55.72
2023-02-24T06:54:49.785Z,56.22
2023-02-24T06:57:17.170Z,51.83
2023-02-24T06:59:44.270Z,55.80
2023-02-24T07:02:11.568Z,61.97
2023-02-24T07:04:44.030Z,56.00
2023-02-24T07:07:14.863Z,49.72
2023-02-24T07:09:42.750Z,54.45
2023-02-24T07:12:12.710Z,48.85
2023-02-24T07:14:40.703Z,49.40
2023-02-24T07:17:08.417Z,59.45
2023-02-24T07:19:36.842Z,67.93
2023-02-24T07:22:04.641Z,57.88
2023-02-24T07:24:36.730Z,52.08
2023-02-24T07:27:11.546Z,64.95
2023-02-24T07:29:39.932Z,55.30
2023-02-24T07:32:09.388Z,57.33
2023-02-24T07:34:40.534Z,55.75
2023-02-24T07:37:10.163Z,51.97
2023-02-24T07:39:39.461Z,55.75
2023-02-24T07:42:10.088Z,54.20
2023-02-24T07:44:39.017Z,53.13
2023-02-24T07:47:08.348Z,56.42
2023-02-24T07:49:40.992Z,53.40
2023-02-24T07:52:09.377Z,50.33
2023-02-24T07:54:39.386Z,50.22
2023-02-24T07:57:13.481Z,58.53
2023-02-24T07:59:47.033Z,50.97
2023-02-24T08:02:15.036Z,45.58
2023-02-24T08:04:49.911Z,47.65
2023-02-24T08:07:24.771Z,46.72
2023-02-24T08:10:14.597Z,51.70
2023-02-24T08:12:43.065Z,48.92
2023-02-24T08:15:17.529Z,48.67
2023-02-24T08:17:47.487Z,47.88
2023-02-24T08:20:15.545Z,46.60
2023-02-24T08:22:47.037Z,45.70
2023-02-24T08:25:19.785Z,51.92
2023-02-24T08:28:07.368Z,46.45
2023-02-24T08:30:45.856Z,51.17
2023-02-24T08:33:22.268Z,45.45
2023-02-24T08:36:01.613Z,46.67
2023-02-24T08:38:44.742Z,48.72
2023-02-24T08:41:20.098Z,48.47
2023-02-24T08:46:26.541Z,42.63
2023-02-24T08:49:00.108Z,41.55
2023-02-24T08:51:34.689Z,41.05
2023-02-24T08:54:11.419Z,41.80
2023-02-24T08:56:43.703Z,45.40
2023-02-24T08:59:37.073Z,42.13
2023-02-24T09:02:20.620Z,38.72
2023-02-24T09:05:05.216Z,45.35
2023-02-24T09:07:38.878Z,46.75
2023-02-24T09:10:17.800Z,46.90
2023-02-24T09:12:45.907Z,38.83
2023-02-24T09:15:17.146Z,41.10
2023-02-24T09:17:45.499Z,35.10
2023-02-24T09:20:27.826Z,41.35
2023-02-24T09:22:58.063Z,40.83
2023-02-24T09:25:40.867Z,37.90
2023-02-24T09:28:18.494Z,39.80
2023-02-24T09:30:55.158Z,43.17
2023-02-24T09:33:39.682Z,42.33
2023-02-24T09:36:20.407Z,42.70
2023-02-24T09:39:02.253Z,42.78
2023-02-24T09:42:07.977Z,42.38
2023-02-24T09:44:52.809Z,44.83
2023-02-24T09:47:40.020Z,40.10
2023-02-24T09:50:59.103Z,38.80
2023-02-24T09:53:18.564Z,42.80
2023-02-24T09:56:04.049Z,34.08
2023-02-24T09:58:47.886Z,33.05
2023-02-24T10:01:36.925Z,34.00
2023-02-24T10:04:21.348Z,39.28
2023-02-24T10:07:03.112Z,25.23
2023-02-24T10:10:20.885Z,23.92
2023-02-24T10:13:15.097Z,33.28
2023-02-24T10:15:58.374Z,26.27
2023-02-24T10:18:45.788Z,24.98
2023-02-24T10:21:48.444Z,29.25
2023-02-24T10:25:21.131Z,28.80
2023-02-24T10:28:20.153Z,27.77
2023-02-24T10:31:25.652Z,27.50
2023-02-24T10:34:13.301Z,27.05
2023-02-24T10:36:47.740Z,22.20
2023-02-24T10:39:30.340Z,23.45
2023-02-24T10:42:16.245Z,22.63
2023-02-24T10:45:01.308Z,20.42
2023-02-24T10:47:31.472Z,19.30
2023-02-24T10:50:02.357Z,22.77
2023-02-24T10:52:50.543Z,20.30
2023-02-24T10:55:47.432Z,19.88
2023-02-24T10:58:38.154Z,21.80
2023-02-24T11:01:20.848Z,22.77
2023-02-24T11:04:22.661Z,20.45
2023-02-24T11:06:55.605Z,16.27
2023-02-24T11:09:28.659Z,15.93
2023-02-24T11:12:45.849Z,19.40
2023-02-24T11:15:43.495Z,22.55
2023-02-24T11:18:25.141Z,17.02
2023-02-24T11:21:11.200Z,12.85
2023-02-24T11:23:52.972Z,15.98
2023-02-24T11:26:41.713Z,17.67
2023-02-24T11:29:48.940Z,19.52
2023-02-24T11:33:00.188Z,15.82
2023-02-24T11:35:41.940Z,16.67
2023-02-24T11:38:27.922Z,14.65
2023-02-24T11:41:21.236Z,16.63
2023-02-24T11:44:22.412Z,11.80
2023-02-24T11:47:11.485Z,12.32
2023-02-24T11:49:55.258Z,12.55
2023-02-24T11:52:34.291Z,17.05
2023-02-24T11:57:43.554Z,11.55
2023-02-24T12:00:25.672Z,18.25
2023-02-24T12:03:23.541Z,11.52
2023-02-24T12:05:56.532Z,10.85
2023-02-24T12:08:36.207Z,11.57
2023-02-24T12:11:11.487Z,16.95
2023-02-24T12:13:56.455Z,9.80
2023-02-24T12:16:33.310Z,10.80
2023-02-24T12:19:19.869Z,12.57
2023-02-24T12:22:03.251Z,10.18
2023-02-24T12:24:30.512Z,13.02
2023-02-24T12:27:34.031Z,15.45
2023-02-24T12:30:34.117Z,13.02
2023-02-24T12:33:42.946Z,15.48
2023-02-24T12:36:34.633Z,17.88
2023-02-24T12:39:47.497Z,19.77
2023-02-24T12:42:46.791Z,16.20
2023-02-24T12:46:00.621Z,22.00
2023-02-24T12:49:14.983Z,22.30
2023-02-24T12:52:23.326Z,21.15
2023-02-24T12:54:58.732Z,21.17
2023-02-24T12:57:51.179Z,21.45
2023-02-24T13:00:30.237Z,20.20
2023-02-24T13:03:15.469Z,23.98
2023-02-24T13:06:17.002Z,19.95
2023-02-24T13:09:41.844Z,16.67
2023-02-24T13:12:42.139Z,19.10
2023-02-24T13:15:26.644Z,20.17
2023-02-24T13:17:57.991Z,22.20
2023-02-24T13:20:33.916Z,21.58
2023-02-24T13:25:37.453Z,20.77
2023-02-24T13:28:21.295Z,22.23
2023-02-24T13:30:59.220Z,26.13
2023-02-24T13:33:36.345Z,21.45
2023-02-24T13:36:22.074Z,25.98
2023-02-24T13:39:07.846Z,22.77
2023-02-24T13:41:40.998Z,22.55
2023-02-24T13:44:28.326Z,21.88
2023-02-24T13:47:37.118Z,24.60
2023-02-24T13:50:26.804Z,24.00
2023-02-24T13:53:12.197Z,30.42
2023-02-24T13:56:05.030Z,31.25
2023-02-24T13:59:34.393Z,24.73
2023-02-24T14:02:16.958Z,26.77
2023-02-24T14:05:03.419Z,25.02
2023-02-24T14:07:36.085Z,22.15
2023-02-24T14:10:16.307Z,24.38
2023-02-24T14:12:44.829Z,21.92
2023-02-24T14:15:26.455Z,21.42
2023-02-24T14:18:05.943Z,24.65
2023-02-24T14:20:37.613Z,21.55
2023-02-24T14:23:33.003Z,20.63
2023-02-24T14:26:11.766Z,24.08
2023-02-24T14:28:40.501Z,19.15
2023-02-24T14:31:16.735Z,19.17
2023-02-24T14:33:47.064Z,22.30
2023-02-24T14:36:23.892Z,11.07
2023-02-24T14:39:09.275Z,9.70
2023-02-24T14:41:37.048Z,9.32
2023-02-24T14:44:28.981Z,8.13
2023-02-24T14:46:59.823Z,10.25
2023-02-24T14:49:31.189Z,11.15
2023-02-24T14:52:12.030Z,16.77
2023-02-24T14:55:15.216Z,10.63
2023-02-24T14:58:12.101Z,10.60
2023-02-24T15:01:15.388Z,8.80
2023-02-24T15:03:50.529Z,10.60
2023-02-24T15:06:32.318Z,6.72
2023-02-24T15:09:28.201Z,12.45
2023-02-24T15:11:58.736Z,10.77
2023-02-24T15:14:31.080Z,7.35
2023-02-24T15:17:12.335Z,9.18
2023-02-24T15:19:46.531Z,8.07
2023-02-24T15:22:39.510Z,8.93
2023-02-24T15:25:42.015Z,8.45
2023-02-24T15:28:34.450Z,11.85
2023-02-24T15:31:09.109Z,6.65
2023-02-24T15:33:45.323Z,9.57
2023-02-24T15:36:21.069Z,15.93
2023-02-24T15:38:58.490Z,10.75
2023-02-24T15:41:37.770Z,8.95
2023-02-24T15:44:05.129Z,9.88
2023-02-24T15:46:36.188Z,8.82
2023-02-24T15:49:05.973Z,12.50
2023-02-24T15:51:41.821Z,9.65
2023-02-24T15:54:36.549Z,15.23
2023-02-24T15:57:05.412Z,13.93
2023-02-24T15:59:33.075Z,12.43
2023-02-24T16:02:04.079Z,12.00
2023-02-24T16:04:31.557Z,10.50
2023-02-24T16:06:58.854Z,12.55
2023-02-24T16:09:40.648Z,8.88
2023-02-24T16:12:21.740Z,12.70
2023-02-24T16:14:55.978Z,12.60
2023-02-24T16:17:40.090Z,10.95
2023-02-24T16:20:31.594Z,9.25
2023-02-24T16:23:08.052Z,12.57
2023-02-24T16:25:45.002Z,10.50
2023-02-24T16:28:23.219Z,14.40
2023-02-24T16:30:52.073Z,10.55
2023-02-24T16:33:23.693Z,8.90
2023-02-24T16:35:55.714Z,10.45
2023-02-24T16:38:28.188Z,12.73
2023-02-24T16:40:56.314Z,8.70
2023-02-24T16:43:30.994Z,14.50
2023-02-24T16:46:04.386Z,12.75
2023-02-24T16:48:37.279Z,10.07
2023-02-24T16:51:06.734Z,11.32
2023-02-24T16:53:35.455Z,16.23
2023-02-24T16:56:05.246Z,9.10
2023-02-24T16:58:32.986Z,10.93
2023-02-24T17:01:02.927Z,17.35
2023-02-24T17:03:37.360Z,11.98
2023-02-24T17:06:05.044Z,29.98
2023-02-24T17:08:33.086Z,16.70
2023-02-24T17:11:00.951Z,12.68
2023-02-24T17:13:28.697Z,11.05
2023-02-24T17:15:57.293Z,10.48
2023-02-24T17:18:27.250Z,10.95
2023-02-24T17:20:55.777Z,15.18
2023-02-24T17:23:25.059Z,11.90
2023-02-24T17:26:03.440Z,12.15
2023-02-24T17:28:31.638Z,14.30
2023-02-24T17:31:02.809Z,12.77
2023-02-24T17:33:30.275Z,8.80
2023-02-24T17:35:57.512Z,7.18
2023-02-24T17:38:25.067Z,13.23
2023-02-24T17:40:52.851Z,15.02
2023-02-24T17:43:24.338Z,10.98
2023-02-24T17:45:53.293Z,8.70
2023-02-24T17:48:24.932Z,9.95
2023-02-24T17:50:53.554Z,13.98
2023-02-24T17:53:22.693Z,8.25
2023-02-24T17:56:01.919Z,9.93
2023-02-24T17:58:30.618Z,10.82
2023-02-24T18:00:58.468Z,12.38
2023-02-24T18:03:26.470Z,13.75
2023-02-24T18:06:11.298Z,14.20
2023-02-24T18:08:41.004Z,15.48
2023-02-24T18:11:14.448Z,15.70
2023-02-24T18:13:49.125Z,14.82
2023-02-24T18:16:17.657Z,12.98
2023-02-24T18:18:47.103Z,14.85
2023-02-24T18:21:18.602Z,13.77
2023-02-24T18:23:51.120Z,11.32
2023-02-24T18:26:21.907Z,19.30
2023-02-24T18:28:55.713Z,21.92
2023-02-24T18:31:27.914Z,19.73
2023-02-24T18:34:00.424Z,14.60
2023-02-24T18:36:29.149Z,14.30
2023-02-24T18:38:58.891Z,20.80
2023-02-24T18:41:28.204Z,15.82
2023-02-24T18:44:00.239Z,20.27
2023-02-24T18:46:31.442Z,23.23
2023-02-24T18:49:04.538Z,16.70
2023-02-24T18:51:33.222Z,15.38
2023-02-24T18:54:01.793Z,18.20
2023-02-24T18:56:33.652Z,23.17
2023-02-24T18:59:03.735Z,19.52
2023-02-24T19:01:39.001Z,16.63
2023-02-24T19:04:08.861Z,22.05
2023-02-24T19:06:39.267Z,13.55
2023-02-24T19:09:12.249Z,22.80
2023-02-24T19:11:42.345Z,22.67
2023-02-24T19:14:14.360Z,17.35
2023-02-24T19:16:43.297Z,19.90
2023-02-24T19:19:18.187Z,17.77
2023-02-24T19:21:48.637Z,13.55
2023-02-24T19:24:17.500Z,13.23
2023-02-24T19:26:48.555Z,19.13
2023-02-24T19:29:20.617Z,25.13
2023-02-24T19:31:55.275Z,20.27
2023-02-24T19:34:24.789Z,21.30
2023-02-24T19:36:53.850Z,20.33
2023-02-24T19:39:22.629Z,21.65
2023-02-24T19:41:51.545Z,18.52
2023-02-24T19:44:20.083Z,14.02
2023-02-24T19:46:50.037Z,18.35
2023-02-24T19:49:21.593Z,24.70
2023-02-24T19:51:54.692Z,23.73
2023-02-24T19:54:23.506Z,18.10
2023-02-24T19:56:52.661Z,19.73
2023-02-24T19:59:25.109Z,14.38
2023-02-24T20:01:57.340Z,28.23
2023-02-24T20:04:25.789Z,16.00
2023-02-24T20:06:57.877Z,18.90
2023-02-24T20:09:29.488Z,18.73
2023-02-24T20:11:59.647Z,28.92
2023-02-24T20:14:30.066Z,20.98
2023-02-24T20:16:58.716Z,19.60
2023-02-24T20:19:26.763Z,18.48
2023-02-24T20:21:59.146Z,19.45
2023-02-24T20:24:28.326Z,19.83
2023-02-24T20:26:56.588Z,31.20
2023-02-24T20:29:24.861Z,22.90
2023-02-24T20:31:54.033Z,18.30
2023-02-24T20:34:23.053Z,17.95
2023-02-24T20:36:51.613Z,17.17
2023-02-24T20:39:22.632Z,14.70
2023-02-24T20:42:09.883Z,16.50
2023-02-24T20:44:38.489Z,16.23
2023-02-24T20:47:08.691Z,12.85
2023-02-24T20:49:37.874Z,20.83
2023-02-24T20:52:06.872Z,10.38
2023-02-24T20:54:35.795Z,13.98
2023-02-24T20:57:04.325Z,10.43
2023-02-24T20:59:33.567Z,13.77
2023-02-24T21:02:03.609Z,16.63
2023-02-24T21:04:34.893Z,12.77
2023-02-24T21:07:02.813Z,13.90
2023-02-24T21:09:40.567Z,12.93
2023-02-24T21:12:13.075Z,8.80
2023-02-24T21:14:43.718Z,17.77
2023-02-24T21:17:12.655Z,9.43
2023-02-24T21:19:40.474Z,10.32
2023-02-24T21:22:08.879Z,18.70
2023-02-24T21:24:37.141Z,14.60
2023-02-24T21:27:04.986Z,9.52
2023-02-24T21:29:33.468Z,11.13
2023-02-24T21:32:01.153Z,9.07
2023-02-24T21:34:29.558Z,9.25
2023-02-24T21:36:57.218Z,11.32
2023-02-24T21:39:24.670Z,11.98
2023-02-24T21:41:53.523Z,8.73
2023-02-24T21:44:21.735Z,18.63
2023-02-24T21:46:49.823Z,15.63
2023-02-24T21:49:18.378Z,8.25
2023-02-24T21:51:49.031Z,10.35
2023-02-24T21:54:19.512Z,8.82
2023-02-24T21:56:46.779Z,15.07
2023-02-24T21:59:17.123Z,12.13
2023-02-24T22:01:45.698Z,13.00
2023-02-24T22:04:18.852Z,18.27
2023-02-24T22:09:20.512Z,13.38
2023-02-24T22:11:49.360Z,7.90
2023-02-24T22:14:17.195Z,27.83
2023-02-24T22:16:44.886Z,13.35
2023-02-24T22:19:12.893Z,11.02
2023-02-24T22:21:42.501Z,12.57
2023-02-24T22:24:14.849Z,15.50
2023-02-24T22:26:43.020Z,16.00
2023-02-24T22:29:13.215Z,14.43
2023-02-24T22:31:43.529Z,19.85
2023-02-24T22:34:11.116Z,23.65
2023-02-24T22:36:38.580Z,11.95
2023-02-24T22:39:08.914Z,14.98
2023-02-24T22:41:37.012Z,18.55
2023-02-24T22:44:06.724Z,12.73
2023-02-24T22:46:39.221Z,14.38
2023-02-24T22:49:07.493Z,16.52
2023-02-24T22:51:34.979Z,16.45
2023-02-24T22:54:02.616Z,17.92
2023-02-24T22:56:30.824Z,9.88
2023-02-24T22:58:59.156Z,10.73
2023-02-24T23:01:30.930Z,16.80
2023-02-24T23:04:03.453Z,15.85
2023-02-24T23:06:31.829Z,17.48
2023-02-24T23:09:00.789Z,12.20
2023-02-24T23:11:38.679Z,18.85
2023-02-24T23:14:13.975Z,13.45
2023-02-24T23:16:44.607Z,13.27
2023-02-24T23:19:19.881Z,10.85
2023-02-24T23:21:53.802Z,16.10
2023-02-24T23:24:22.238Z,14.00
2023-02-24T23:26:54.095Z,14.48
2023-02-24T23:29:26.594Z,22.17
2023-02-24T23:31:54.043Z,16.13
2023-02-24T23:34:21.388Z,14.25
2023-02-24T23:36:48.762Z,16.17
2023-02-24T23:39:22.963Z,10.50
2023-02-24T23:41:56.974Z,16.00
2023-02-24T23:44:28.833Z,10.18
2023-02-24T23:46:58.236Z,20.92
2023-02-24T23:49:29.417Z,8.88
2023-02-24T23:52:03.783Z,14.63
2023-02-24T23:54:32.102Z,9.98
2023-02-24T23:56:59.435Z,9.23
2023-02-24T23:59:26.748Z,13.07
